createdAt,value
2022-10-13T00:01:06.772Z,101764.77
2022-10-13T00:03:33.524Z,101763.98
2022-10-13T00:06:00.162Z,101760.89
2022-10-13T00:08:26.879Z,101761.34
2022-10-13T00:10:53.538Z,101759.11
2022-10-13T00:13:20.852Z,101757.77
2022-10-13T00:15:48.554Z,101755.33
2022-10-13T00:18:16.940Z,101754.23
2022-10-13T00:20:48.197Z,101757.13
2022-10-13T00:23:17.672Z,101755.73
2022-10-13T00:25:49.847Z,101752.33
2022-10-13T00:28:19.822Z,101750.36
2022-10-13T00:30:47.435Z,101747.41
2022-10-13T00:33:15.047Z,101745.20
2022-10-13T00:35:45.725Z,101742.73
2022-10-13T00:38:13.187Z,101745.30
2022-10-13T00:40:53.823Z,101742.29
2022-10-13T00:43:23.997Z,101742.03
2022-10-13T00:45:53.256Z,101747.37
2022-10-13T00:48:25.637Z,101742.33
2022-10-13T00:50:53.608Z,101739.55
2022-10-13T00:53:27.005Z,101738.78
2022-10-13T00:55:55.591Z,101742.11
2022-10-13T00:58:31.279Z,101742.93
2022-10-13T01:00:59.155Z,101740.09
2022-10-13T01:03:27.307Z,101740.92
2022-10-13T01:06:00.288Z,101740.98
2022-10-13T01:08:29.611Z,101742.95
2022-10-13T01:11:31.266Z,101739.08
2022-10-13T01:14:18.659Z,101737.18
2022-10-13T01:16:57.979Z,101736.41
2022-10-13T01:19:49.339Z,101730.52
2022-10-13T01:23:06.120Z,101730.42
2022-10-13T01:26:09.689Z,101729.48
2022-10-13T01:29:11.933Z,101724.98
2022-10-13T01:32:01.936Z,101725.56
2022-10-13T01:35:07.158Z,101726.77
2022-10-13T01:38:08.485Z,101727.11
2022-10-13T01:41:01.820Z,101720.73
2022-10-13T01:43:37.502Z,101716.55
2022-10-13T01:46:15.739Z,101714.81
2022-10-13T01:48:45.859Z,101710.68
2022-10-13T01:51:20.744Z,101709.23
2022-10-13T01:53:49.123Z,101705.49
2022-10-13T01:56:16.566Z,101703.48
2022-10-13T01:58:44.743Z,101700.11
2022-10-13T02:02:16.561Z,101696.62
2022-10-13T02:05:15.214Z,101693.02
2022-10-13T02:07:49.181Z,101687.01
2022-10-13T02:10:33.453Z,101689.91
2022-10-13T02:13:06.604Z,101688.34
2022-10-13T02:16:01.318Z,101686.61
2022-10-13T02:18:34.501Z,101684.17
2022-10-13T02:21:03.520Z,101680.46
2022-10-13T02:23:31.518Z,101677.94
2022-10-13T02:26:00.344Z,101674.73
2022-10-13T02:28:29.263Z,101676.52
2022-10-13T02:30:56.781Z,101670.14
2022-10-13T02:33:23.548Z,101667.73
2022-10-13T02:35:50.202Z,101666.12
2022-10-13T02:38:16.804Z,101665.20
2022-10-13T02:40:43.802Z,101662.87
2022-10-13T02:43:10.456Z,101665.15
2022-10-13T02:45:37.125Z,101670.24
2022-10-13T02:48:03.878Z,101666.45
2022-10-13T02:50:30.532Z,101657.88
2022-10-13T02:52:57.312Z,101660.59
2022-10-13T02:55:23.977Z,101660.45
2022-10-13T02:57:50.610Z,101656.36
2022-10-13T03:00:17.711Z,101657.49
2022-10-13T03:02:44.727Z,101652.20
2022-10-13T03:05:11.560Z,101649.12
2022-10-13T03:07:38.401Z,101646.98
2022-10-13T03:10:05.744Z,101646.01
2022-10-13T03:12:32.546Z,101643.13
2022-10-13T03:14:59.169Z,101643.37
2022-10-13T03:17:25.873Z,101641.82
2022-10-13T03:19:52.674Z,101641.46
2022-10-13T03:22:19.589Z,101640.04
2022-10-13T03:24:46.593Z,101639.16
2022-10-13T03:27:13.740Z,101635.73
2022-10-13T03:29:40.478Z,101633.59
2022-10-13T03:32:07.354Z,101633.23
2022-10-13T03:34:33.949Z,101632.48
2022-10-13T03:37:00.582Z,101628.72
2022-10-13T03:39:27.200Z,101632.69
2022-10-13T03:41:53.839Z,101627.70
2022-10-13T03:44:20.476Z,101626.91
2022-10-13T03:46:47.256Z,101630.09
2022-10-13T03:49:14.354Z,101631.16
2022-10-13T03:51:41.058Z,101629.41
2022-10-13T03:54:07.770Z,101627.80
2022-10-13T03:56:34.417Z,101629.23
2022-10-13T03:59:01.773Z,101625.27
2022-10-13T04:01:30.531Z,101623.58
2022-10-13T04:03:59.621Z,101624.98
2022-10-13T04:06:26.735Z,101625.95
2022-10-13T04:08:54.760Z,101620.43
2022-10-13T04:11:22.305Z,101616.76
2022-10-13T04:13:49.542Z,101614.12
2022-10-13T04:16:25.064Z,101618.46
2022-10-13T04:19:04.616Z,101615.71
2022-10-13T04:21:34.730Z,101616.84
2022-10-13T04:24:03.891Z,101612.56
2022-10-13T04:26:34.275Z,101608.20
2022-10-13T04:29:04.771Z,101607.05
2022-10-13T04:31:33.023Z,101605.89
2022-10-13T04:33:59.701Z,101606.21
2022-10-13T04:36:27.009Z,101609.73
2022-10-13T04:38:55.051Z,101610.80
2022-10-13T04:41:23.558Z,101606.23
2022-10-13T04:43:52.342Z,101603.26
2022-10-13T04:46:26.593Z,101605.39
2022-10-13T04:48:54.730Z,101601.40
2022-10-13T04:51:24.936Z,101594.96
2022-10-13T04:54:01.042Z,101597.02
2022-10-13T04:56:28.497Z,101598.84
2022-10-13T04:58:55.238Z,101599.54
2022-10-13T05:01:25.087Z,101596.52
2022-10-13T05:03:57.541Z,101592.48
2022-10-13T05:06:48.569Z,101588.64
2022-10-13T05:09:24.000Z,101590.79
2022-10-13T05:11:50.770Z,101588.84
2022-10-13T05:14:17.925Z,101582.07
2022-10-13T05:16:44.524Z,101579.99
2022-10-13T05:19:11.264Z,101581.52
2022-10-13T05:21:39.314Z,101580.83
2022-10-13T05:24:06.901Z,101579.90
2022-10-13T05:26:36.091Z,101582.11
2022-10-13T05:29:03.601Z,101576.39
2022-10-13T05:31:32.814Z,101575.15
2022-10-13T05:34:00.900Z,101574.34
2022-10-13T05:36:34.605Z,101577.92
2022-10-13T05:39:06.338Z,101573.41
2022-10-13T05:41:33.026Z,101568.91
2022-10-13T05:44:04.183Z,101568.00
2022-10-13T05:46:30.979Z,101565.94
2022-10-13T05:48:57.697Z,101564.78
2022-10-13T05:51:30.600Z,101563.63
2022-10-13T05:54:13.102Z,101568.89
2022-10-13T05:56:47.661Z,101574.58
2022-10-13T05:59:23.346Z,101574.73
2022-10-13T06:01:53.440Z,101570.83
2022-10-13T06:04:31.739Z,101564.77
2022-10-13T06:06:58.497Z,101570.11
2022-10-13T06:09:26.429Z,101570.27
2022-10-13T06:11:53.042Z,101568.67
2022-10-13T06:14:19.728Z,101572.31
2022-10-13T06:16:46.348Z,101569.34
2022-10-13T06:19:12.982Z,101566.66
2022-10-13T06:21:39.674Z,101566.55
2022-10-13T06:24:06.638Z,101568.60
2022-10-13T06:26:33.464Z,101569.44
2022-10-13T06:29:00.275Z,101566.77
2022-10-13T06:31:27.397Z,101567.84
2022-10-13T06:33:54.370Z,101565.52
2022-10-13T06:36:21.139Z,101570.22
2022-10-13T06:38:47.781Z,101570.58
2022-10-13T06:41:15.544Z,101575.91
2022-10-13T06:43:42.513Z,101576.56
2022-10-13T06:46:10.230Z,101575.07
2022-10-13T06:48:36.929Z,101577.33
2022-10-13T06:51:06.485Z,101577.86
2022-10-13T06:53:34.003Z,101577.48
2022-10-13T06:56:04.285Z,101580.52
2022-10-13T06:58:31.106Z,101582.89
2022-10-13T07:00:57.924Z,101581.61
2022-10-13T07:03:25.356Z,101578.66
2022-10-13T07:05:52.175Z,101572.30
2022-10-13T07:08:19.625Z,101564.66
2022-10-13T07:10:46.446Z,101565.15
2022-10-13T07:13:13.140Z,101564.09
2022-10-13T07:15:41.074Z,101564.89
2022-10-13T07:18:08.460Z,101563.73
2022-10-13T07:20:36.040Z,101560.73
2022-10-13T07:23:03.576Z,101556.91
2022-10-13T07:25:30.602Z,101547.66
2022-10-13T07:28:00.049Z,101545.08
2022-10-13T07:30:27.432Z,101542.88
2022-10-13T07:32:54.061Z,101548.08
2022-10-13T07:35:22.587Z,101550.09
2022-10-13T07:37:53.957Z,101546.70
2022-10-13T07:40:20.886Z,101543.39
2022-10-13T07:42:47.589Z,101542.39
2022-10-13T07:45:14.409Z,101537.20
2022-10-13T07:47:41.060Z,101535.95
2022-10-13T07:50:09.316Z,101528.98
2022-10-13T07:52:37.095Z,101526.84
2022-10-13T07:55:04.697Z,101527.48
2022-10-13T07:57:31.409Z,101521.65
2022-10-13T07:59:58.229Z,101516.02
2022-10-13T08:02:26.161Z,101521.83
2022-10-13T08:04:52.904Z,101518.63
2022-10-13T08:07:19.764Z,101522.23
2022-10-13T08:09:46.543Z,101522.48
2022-10-13T08:12:18.338Z,101521.50
2022-10-13T08:14:45.305Z,101518.99
2022-10-13T08:17:12.063Z,101518.44
2022-10-13T08:19:38.687Z,101514.21
2022-10-13T08:22:09.211Z,101511.27
2022-10-13T08:24:36.748Z,101512.30
2022-10-13T08:27:03.745Z,101507.90
2022-10-13T08:29:30.463Z,101502.95
2022-10-13T08:31:57.206Z,101503.83
2022-10-13T08:34:25.345Z,101503.27
2022-10-13T08:36:56.124Z,101493.35
2022-10-13T08:39:24.420Z,101493.90
2022-10-13T08:41:52.359Z,101494.94
2022-10-13T08:45:10.811Z,101491.69
2022-10-13T08:47:27.277Z,101493.39
2022-10-13T08:50:00.291Z,101497.06
2022-10-13T08:52:46.952Z,101496.09
2022-10-13T08:55:42.827Z,101497.83
2022-10-13T08:58:16.016Z,101495.35
2022-10-13T09:00:43.126Z,101495.55
2022-10-13T09:03:29.857Z,101497.59
2022-10-13T09:06:27.879Z,101490.98
2022-10-13T09:08:58.562Z,101485.78
2022-10-13T09:11:34.053Z,101477.77
2022-10-13T09:14:08.813Z,101473.61
2022-10-13T09:16:40.650Z,101478.05
2022-10-13T09:19:34.062Z,101475.11
2022-10-13T09:22:24.529Z,101471.21
2022-10-13T09:25:06.604Z,101474.08
2022-10-13T09:27:48.440Z,101475.95
2022-10-13T09:30:26.821Z,101473.19
2022-10-13T09:33:22.158Z,101473.23
2022-10-13T09:36:06.357Z,101472.52
2022-10-13T09:38:34.957Z,101468.88
2022-10-13T09:41:10.433Z,101465.84
2022-10-13T09:43:45.792Z,101471.04
2022-10-13T09:46:24.253Z,101471.48
2022-10-13T09:48:55.178Z,101471.62
2022-10-13T09:51:42.599Z,101471.25
2022-10-13T09:54:38.591Z,101472.39
2022-10-13T09:57:34.378Z,101477.71
2022-10-13T10:00:16.437Z,101477.27
2022-10-13T10:02:55.628Z,101472.64
2022-10-13T10:05:38.454Z,101476.28
2022-10-13T10:09:05.260Z,101478.45
2022-10-13T10:11:33.515Z,101478.49
2022-10-13T10:14:26.364Z,101471.20
2022-10-13T10:17:42.999Z,101467.88
2022-10-13T10:20:49.365Z,101467.62
2022-10-13T10:23:48.959Z,101466.46
2022-10-13T10:26:30.154Z,101464.38
2022-10-13T10:29:19.416Z,101462.31
2022-10-13T10:32:30.597Z,101460.10
2022-10-13T10:35:10.037Z,101455.80
2022-10-13T10:37:48.630Z,101455.22
2022-10-13T10:40:47.599Z,101454.21
2022-10-13T10:44:00.791Z,101444.09
2022-10-13T10:46:36.904Z,101440.54
2022-10-13T10:49:31.447Z,101433.24
2022-10-13T10:52:03.509Z,101425.19
2022-10-13T10:54:54.746Z,101422.14
2022-10-13T10:57:54.790Z,101414.06
2022-10-13T11:00:23.890Z,101406.19
2022-10-13T11:03:09.506Z,101404.72
2022-10-13T11:05:58.367Z,101402.91
2022-10-13T11:08:30.702Z,101404.02
2022-10-13T11:11:25.082Z,101402.14
2022-10-13T11:14:05.730Z,101401.38
2022-10-13T11:16:38.387Z,101396.93
2022-10-13T11:19:26.209Z,101388.19
2022-10-13T11:21:52.729Z,101387.88
2022-10-13T11:24:51.006Z,101389.52
2022-10-13T11:27:47.069Z,101387.82
2022-10-13T11:30:42.362Z,101385.92
2022-10-13T11:33:40.338Z,101384.20
2022-10-13T11:36:57.098Z,101378.05
2022-10-13T11:42:23.649Z,101369.19
2022-10-13T11:45:25.867Z,101369.21
2022-10-13T11:48:30.513Z,101363.55
2022-10-13T11:51:23.785Z,101361.98
2022-10-13T11:54:34.510Z,101355.95
2022-10-13T11:57:01.514Z,101349.74
2022-10-13T11:59:32.553Z,101344.77
2022-10-13T12:02:12.344Z,101338.91
2022-10-13T12:04:46.469Z,101335.89
2022-10-13T12:07:17.494Z,101332.88
2022-10-13T12:09:57.563Z,101329.45
2022-10-13T12:12:25.849Z,101330.69
2022-10-13T12:14:58.650Z,101328.69
2022-10-13T12:17:32.682Z,101326.62
2022-10-13T12:20:26.007Z,101322.21
2022-10-13T12:22:55.407Z,101320.79
2022-10-13T12:25:28.375Z,101323.48
2022-10-13T12:27:59.585Z,101321.16
2022-10-13T12:30:36.431Z,101325.96
2022-10-13T12:33:22.561Z,101328.45
2022-10-13T12:35:49.355Z,101329.01
2022-10-13T12:38:20.903Z,101327.58
2022-10-13T12:40:51.006Z,101325.44
2022-10-13T12:43:25.326Z,101330.33
2022-10-13T12:45:52.526Z,101333.55
2022-10-13T12:48:37.049Z,101330.86
2022-10-13T12:51:27.559Z,101332.20
2022-10-13T12:53:54.806Z,101332.73
2022-10-13T12:56:33.243Z,101330.11
2022-10-13T12:59:00.927Z,101327.61
2022-10-13T13:01:32.412Z,101323.91
2022-10-13T13:04:16.472Z,101323.94
2022-10-13T13:06:59.584Z,101322.16
2022-10-13T13:09:35.654Z,101324.85
2022-10-13T13:12:20.000Z,101321.08
2022-10-13T13:14:52.482Z,101322.86
2022-10-13T13:17:38.474Z,101325.51
2022-10-13T13:20:31.235Z,101325.16
2022-10-13T13:22:58.888Z,101321.08
2022-10-13T13:25:26.767Z,101323.77
2022-10-13T13:27:53.990Z,101323.41
2022-10-13T13:30:23.997Z,101317.80
2022-10-13T13:32:51.668Z,101317.98
2022-10-13T13:35:18.848Z,101316.70
2022-10-13T13:37:51.516Z,101311.36
2022-10-13T13:40:27.682Z,101309.63
2022-10-13T13:42:55.352Z,101304.09
2022-10-13T13:45:27.212Z,101303.90
2022-10-13T13:47:59.513Z,101300.52
2022-10-13T13:50:34.527Z,101304.27
2022-10-13T13:53:01.729Z,101303.92
2022-10-13T13:55:30.103Z,101302.84
2022-10-13T13:57:58.406Z,101303.61
2022-10-13T14:00:25.930Z,101299.73
2022-10-13T14:02:52.687Z,101298.84
2022-10-13T14:05:19.450Z,101297.05
2022-10-13T14:07:46.201Z,101288.69
2022-10-13T14:10:12.951Z,101280.16
2022-10-13T14:12:40.089Z,101275.67
2022-10-13T14:15:07.978Z,101268.89
2022-10-13T14:17:34.696Z,101262.13
2022-10-13T14:20:01.526Z,101260.31
2022-10-13T14:22:28.308Z,101260.77
2022-10-13T14:24:54.977Z,101268.29
2022-10-13T14:27:21.923Z,101270.81
2022-10-13T14:29:48.905Z,101267.45
2022-10-13T14:32:15.933Z,101268.70
2022-10-13T14:34:42.591Z,101275.43
2022-10-13T14:37:09.214Z,101273.60
2022-10-13T14:39:35.901Z,101273.88
2022-10-13T14:42:02.742Z,101276.20
2022-10-13T14:44:29.400Z,101275.88
2022-10-13T14:46:56.090Z,101274.09
2022-10-13T14:49:22.961Z,101272.84
2022-10-13T14:51:49.630Z,101273.23
2022-10-13T14:54:16.738Z,101268.43
2022-10-13T14:56:44.728Z,101268.60
2022-10-13T14:59:12.565Z,101265.58
2022-10-13T15:01:41.525Z,101263.10
2022-10-13T15:04:08.815Z,101255.98
2022-10-13T15:06:40.243Z,101254.36
2022-10-13T15:11:41.554Z,101254.48
2022-10-13T15:14:09.748Z,101257.64
2022-10-13T15:16:37.876Z,101261.34
2022-10-13T15:19:05.402Z,101263.92
2022-10-13T15:21:32.111Z,101268.08
2022-10-13T15:23:58.980Z,101268.34
2022-10-13T15:26:25.748Z,101266.84
2022-10-13T15:28:53.978Z,101263.92
2022-10-13T15:31:23.555Z,101266.13
2022-10-13T15:33:53.644Z,101264.27
2022-10-13T15:36:23.074Z,101269.31
2022-10-13T15:38:51.519Z,101268.76
2022-10-13T15:41:18.902Z,101267.69
2022-10-13T15:43:46.030Z,101263.19
2022-10-13T15:46:21.710Z,101263.48
2022-10-13T15:48:53.496Z,101262.67
2022-10-13T15:51:24.331Z,101262.30
2022-10-13T15:53:51.045Z,101267.93
2022-10-13T15:56:18.197Z,101266.54
2022-10-13T15:58:46.247Z,101266.91
2022-10-13T16:01:14.560Z,101263.70
2022-10-13T16:03:42.463Z,101260.30
2022-10-13T16:06:13.702Z,101256.39
2022-10-13T16:08:44.183Z,101266.59
2022-10-13T16:11:15.585Z,101265.87
2022-10-13T16:13:51.106Z,101268.75
2022-10-13T16:16:19.526Z,101272.60
2022-10-13T16:18:46.837Z,101272.52
2022-10-13T16:21:19.243Z,101269.65
2022-10-13T16:23:47.958Z,101268.35
2022-10-13T16:26:17.286Z,101265.84
2022-10-13T16:28:45.767Z,101263.00
2022-10-13T16:31:16.610Z,101265.19
2022-10-13T16:33:45.440Z,101265.31
2022-10-13T16:36:16.782Z,101262.55
2022-10-13T16:38:46.091Z,101260.66
2022-10-13T16:41:18.470Z,101260.63
2022-10-13T16:43:47.454Z,101259.48
2022-10-13T16:46:18.674Z,101261.67
2022-10-13T16:48:47.078Z,101263.14
2022-10-13T16:51:17.932Z,101265.75
2022-10-13T16:53:53.040Z,101264.07
2022-10-13T16:56:24.421Z,101262.77
2022-10-13T16:59:01.271Z,101260.62
2022-10-13T17:01:29.942Z,101263.25
2022-10-13T17:03:57.388Z,101262.14
2022-10-13T17:06:27.242Z,101262.37
2022-10-13T17:08:58.464Z,101262.00
2022-10-13T17:11:31.573Z,101262.13
2022-10-13T17:14:00.460Z,101261.39
2022-10-13T17:16:28.313Z,101264.23
2022-10-13T17:18:55.158Z,101264.16
2022-10-13T17:21:22.465Z,101267.34
2022-10-13T17:23:50.181Z,101263.27
2022-10-13T17:26:19.122Z,101262.38
2022-10-13T17:28:45.883Z,101262.31
2022-10-13T17:31:23.774Z,101256.96
2022-10-13T17:33:51.381Z,101255.98
2022-10-13T17:36:25.681Z,101255.80
2022-10-13T17:38:55.907Z,101254.81
2022-10-13T17:41:24.462Z,101253.51
2022-10-13T17:43:52.393Z,101257.32
2022-10-13T17:46:41.586Z,101259.91
2022-10-13T17:49:12.010Z,101262.48
2022-10-13T17:51:41.330Z,101260.75
2022-10-13T17:54:14.441Z,101261.34
2022-10-13T17:56:43.946Z,101261.14
2022-10-13T17:59:10.905Z,101254.23
2022-10-13T18:01:38.420Z,101253.56
2022-10-13T18:04:11.157Z,101256.26
2022-10-13T18:06:40.910Z,101258.58
2022-10-13T18:09:20.503Z,101255.98
2022-10-13T18:11:51.178Z,101252.91
2022-10-13T18:14:21.040Z,101254.77
2022-10-13T18:16:48.769Z,101254.73
2022-10-13T18:19:15.537Z,101256.64
2022-10-13T18:21:42.478Z,101257.39
2022-10-13T18:24:11.392Z,101258.66
2022-10-13T18:26:38.569Z,101251.67
2022-10-13T18:29:09.223Z,101249.59
2022-10-13T18:31:38.447Z,101247.52
2022-10-13T18:34:13.653Z,101245.26
2022-10-13T18:36:54.940Z,101245.94
2022-10-13T18:39:25.828Z,101242.23
2022-10-13T18:41:55.044Z,101245.55
2022-10-13T18:44:24.939Z,101244.98
2022-10-13T18:46:56.290Z,101242.25
2022-10-13T18:49:30.916Z,101239.69
2022-10-13T18:51:59.507Z,101242.84
2022-10-13T18:54:27.863Z,101242.14
2022-10-13T18:56:54.531Z,101238.73
2022-10-13T18:59:21.253Z,101239.34
2022-10-13T19:01:47.925Z,101237.39
2022-10-13T19:04:16.849Z,101237.00
2022-10-13T19:06:45.091Z,101238.50
2022-10-13T19:09:15.053Z,101237.58
2022-10-13T19:11:41.926Z,101233.67
2022-10-13T19:14:12.491Z,101233.73
2022-10-13T19:16:42.621Z,101235.40
2022-10-13T19:19:09.462Z,101235.02
2022-10-13T19:21:38.203Z,101231.61
2022-10-13T19:24:05.477Z,101230.04
2022-10-13T19:26:34.683Z,101231.41
2022-10-13T19:29:09.072Z,101223.33
2022-10-13T19:31:37.977Z,101220.27
2022-10-13T19:34:04.685Z,101218.84
2022-10-13T19:36:37.451Z,101224.56
2022-10-13T19:39:11.732Z,101223.25
2022-10-13T19:41:40.362Z,101222.77
2022-10-13T19:44:07.141Z,101220.63
2022-10-13T19:46:36.274Z,101217.45
2022-10-13T19:49:04.877Z,101217.70
2022-10-13T19:51:33.024Z,101217.69
2022-10-13T19:54:00.915Z,101218.88
2022-10-13T19:56:34.088Z,101218.94
2022-10-13T19:59:04.410Z,101220.48
2022-10-13T20:01:33.005Z,101222.81
2022-10-13T20:03:59.716Z,101224.16
2022-10-13T20:06:26.334Z,101227.34
2022-10-13T20:08:52.970Z,101221.67
2022-10-13T20:11:23.790Z,101225.21
2022-10-13T20:13:52.582Z,101225.55
2022-10-13T20:16:24.165Z,101226.30
2022-10-13T20:18:57.631Z,101226.82
2022-10-13T20:21:27.306Z,101226.44
2022-10-13T20:23:55.169Z,101224.70
2022-10-13T20:26:23.320Z,101228.04
2022-10-13T20:28:52.475Z,101226.73
2022-10-13T20:31:21.969Z,101222.55
2022-10-13T20:33:53.997Z,101223.90
2022-10-13T20:36:20.686Z,101217.55
2022-10-13T20:38:49.144Z,101221.25
2022-10-13T20:41:19.887Z,101216.14
2022-10-13T20:43:48.579Z,101218.50
2022-10-13T20:46:17.868Z,101216.53
2022-10-13T20:49:09.290Z,101216.71
2022-10-13T20:51:31.463Z,101218.69
2022-10-13T20:53:58.353Z,101217.48
2022-10-13T20:56:29.269Z,101221.40
2022-10-13T20:58:55.966Z,101220.45
2022-10-13T21:01:23.956Z,101222.67
2022-10-13T21:03:54.781Z,101220.42
2022-10-13T21:06:24.333Z,101220.40
2022-10-13T21:08:52.340Z,101221.15
2022-10-13T21:11:22.179Z,101220.44
2022-10-13T21:13:50.968Z,101222.61
2022-10-13T21:16:21.828Z,101227.23
2022-10-13T21:18:51.224Z,101224.39
2022-10-13T21:21:24.853Z,101226.10
2022-10-13T21:23:54.202Z,101222.61
2022-10-13T21:26:23.530Z,101225.30
2022-10-13T21:28:51.273Z,101225.80
2022-10-13T21:31:21.465Z,101226.13
2022-10-13T21:33:49.560Z,101224.46
2022-10-13T21:36:29.695Z,101223.47
2022-10-13T21:39:01.295Z,101227.51
2022-10-13T21:41:29.399Z,101229.95
2022-10-13T21:43:57.417Z,101228.97
2022-10-13T21:46:28.225Z,101226.14
2022-10-13T21:48:58.749Z,101229.96
2022-10-13T21:51:29.411Z,101225.05
2022-10-13T21:54:06.599Z,101227.27
2022-10-13T21:56:34.380Z,101227.19
2022-10-13T21:59:01.658Z,101232.55
2022-10-13T22:01:28.802Z,101228.67
2022-10-13T22:03:58.546Z,101229.59
2022-10-13T22:06:27.417Z,101226.68
2022-10-13T22:08:56.938Z,101227.84
2022-10-13T22:11:28.498Z,101230.14
2022-10-13T22:13:59.347Z,101228.95
2022-10-13T22:16:49.600Z,101231.45
2022-10-13T22:19:18.486Z,101230.97
2022-10-13T22:21:48.510Z,101229.50
2022-10-13T22:24:21.243Z,101229.67
2022-10-13T22:26:49.996Z,101228.86
2022-10-13T22:29:21.024Z,101230.41
2022-10-13T22:31:48.480Z,101226.97
2022-10-13T22:34:16.530Z,101227.98
2022-10-13T22:36:45.087Z,101224.74
2022-10-13T22:39:12.641Z,101222.40
2022-10-13T22:41:39.690Z,101217.31
2022-10-13T22:44:06.380Z,101217.68
2022-10-13T22:46:38.778Z,101220.65
2022-10-13T22:49:07.710Z,101220.05
2022-10-13T22:51:36.600Z,101222.25
2022-10-13T22:54:04.746Z,101223.30
2022-10-13T22:56:34.345Z,101222.59
2022-10-13T22:59:07.567Z,101220.30
2022-10-13T23:01:35.405Z,101212.77
2022-10-13T23:04:02.152Z,101209.74
2022-10-13T23:06:32.614Z,101206.28
2022-10-13T23:09:06.179Z,101204.98
2022-10-13T23:11:34.347Z,101204.12
2022-10-13T23:14:02.766Z,101203.39
2022-10-13T23:16:30.330Z,101205.48
2022-10-13T23:18:57.206Z,101208.11
2022-10-13T23:21:28.968Z,101205.17
2022-10-13T23:24:02.585Z,101215.61
2022-10-13T23:26:29.486Z,101215.27
2022-10-13T23:28:57.839Z,101212.66
2022-10-13T23:31:27.404Z,101212.50
2022-10-13T23:33:54.499Z,101209.45
2022-10-13T23:36:25.542Z,101199.02
2022-10-13T23:39:05.434Z,101198.53
2022-10-13T23:41:32.718Z,101202.46
2022-10-13T23:43:59.500Z,101197.27
2022-10-13T23:46:26.221Z,101197.04
2022-10-13T23:48:53.024Z,101194.55
2022-10-13T23:51:24.478Z,101196.64
2022-10-13T23:53:52.557Z,101196.95
2022-10-13T23:56:19.430Z,101198.88
2022-10-13T23:58:46.781Z,101197.59
